Time;durP1;ratioP1;P1;durP2;ratioP2;P2;SDS_P1;SDS_P2;PMS_P1;PMS_P2;Temp;Humidity;BMP_temperature;BMP_pressure;BME280_temperature;BME280_humidity;BME280_pressure;Samples;Min_cycle;Max_cycle;Signal;HPM_P1;HPM_P2
2022/08/14 00:01:53;;;;;;;11.00;8.20;;;;;;;;;;108911;1296;23069;-28
2022/08/14 00:04:18;;;;;;;13.80;6.70;;;;;;;;;;108906;1295;23279;-28
2022/08/14 00:06:44;;;;;;;11.40;7.10;;;;;;;;;;108894;1295;23265;-28
2022/08/14 00:09:09;;;;;;;8.10;7.10;;;;;;;;;;108875;1296;23384;-28
2022/08/14 00:11:35;;;;;;;8.60;7.40;;;;;;;;;;108909;1296;23210;-26
2022/08/14 00:14:01;;;;;;;11.20;9.40;;;;;;;;;;108638;1303;23345;-30
2022/08/14 00:16:26;;;;;;;10.40;8.30;;;;;;;;;;108853;1296;23135;-25
2022/08/14 00:18:51;;;;;;;9.90;8.90;;;;;;;;;;108889;1296;22286;-28
2022/08/14 00:21:17;;;;;;;7.60;6.90;;;;;;;;;;108593;1288;22511;-26
2022/08/14 00:23:42;;;;;;;8.00;7.00;;;;;;;;;;108858;1296;22733;-26
2022/08/14 00:26:08;;;;;;;10.60;9.40;;;;;;;;;;108896;1303;22524;-28
2022/08/14 00:28:33;;;;;;;11.20;10.10;;;;;;;;;;108754;1299;23390;-28
2022/08/14 00:30:59;;;;;;;10.40;8.90;;;;;;;;;;108895;1296;22743;-28
2022/08/14 00:33:25;;;;;;;10.80;7.90;;;;;;;;;;108902;1296;22418;-24
2022/08/14 00:35:50;;;;;;;10.90;9.70;;;;;;;;;;108907;1295;22391;-24
2022/08/14 00:38:17;;;;;;;8.20;6.10;;;;;;;;;;108818;1296;22419;-24
2022/08/14 00:40:42;;;;;;;10.50;9.50;;;;;;;;;;108901;1303;22870;-28
2022/08/14 00:43:08;;;;;;;10.00;8.50;;;;;;;;;;108946;1296;22744;-25
2022/08/14 00:45:34;;;;;;;9.20;8.40;;;;;;;;;;108350;1299;22483;-26
2022/08/14 00:48:00;;;;;;;7.70;6.80;;;;;;;;;;108766;1302;23458;-26
2022/08/14 00:50:29;;;;;;;6.80;6.20;;;;;;;;;;108888;1303;23252;-30
2022/08/14 00:52:55;;;;;;;7.90;6.00;;;;;;;;;;108912;1296;22444;-28
2022/08/14 00:55:21;;;;;;;7.10;6.40;;;;;;;;;;108851;1303;22396;-28
2022/08/14 00:58:29;;;;;;;8.90;7.70;;;;;;;;;;108874;1295;22533;-24
2022/08/14 01:00:33;;;;;;;8.10;7.10;;;;;;;;;;108854;1296;22565;-24
2022/08/14 01:02:59;;;;;;;7.00;5.60;;;;;;;;;;108840;1296;23140;-28
2022/08/14 01:05:25;;;;;;;8.30;7.00;;;;;;;;;;108872;1303;22418;-28
2022/08/14 01:07:52;;;;;;;8.50;6.10;;;;;;;;;;108917;1296;22574;-25
2022/08/14 01:10:18;;;;;;;7.10;6.30;;;;;;;;;;108899;1296;22539;-24
2022/08/14 01:12:44;;;;;;;11.90;8.40;;;;;;;;;;108859;1296;22382;-24
2022/08/14 01:15:09;;;;;;;8.70;7.70;;;;;;;;;;108830;1296;25105;-24
2022/08/14 01:22:35;;;;;;;10.30;9.20;;;;;;;;;;108861;1296;23046;-26
2022/08/14 01:25:00;;;;;;;9.80;8.90;;;;;;;;;;108857;1296;22613;-26
2022/08/14 01:27:27;;;;;;;11.30;9.00;;;;;;;;;;108885;1296;23125;-26
2022/08/14 01:29:54;;;;;;;11.00;8.80;;;;;;;;;;108896;1296;23128;-30
2022/08/14 01:32:20;;;;;;;11.20;10.10;;;;;;;;;;108831;1296;23162;-26
2022/08/14 01:34:47;;;;;;;9.00;8.20;;;;;;;;;;108902;1296;22533;-29
2022/08/14 01:37:13;;;;;;;11.40;8.20;;;;;;;;;;108886;1296;23233;-28
2022/08/14 01:39:38;;;;;;;11.10;9.40;;;;;;;;;;108919;1296;22613;-24
2022/08/14 01:42:05;;;;;;;10.50;9.50;;;;;;;;;;108846;1296;23005;-24
2022/08/14 01:44:30;;;;;;;12.90;8.70;;;;;;;;;;108876;1296;23022;-24
2022/08/14 01:46:57;;;;;;;11.00;9.70;;;;;;;;;;108887;1296;23184;-25
2022/08/14 01:49:23;;;;;;;10.30;9.00;;;;;;;;;;108865;1296;23185;-28
2022/08/14 01:51:53;;;;;;;12.00;10.70;;;;;;;;;;108883;1296;23349;-24
2022/08/14 01:54:20;;;;;;;12.60;10.30;;;;;;;;;;108929;1296;23341;-24
2022/08/14 01:56:46;;;;;;;8.40;6.90;;;;;;;;;;108860;1296;22516;-24
2022/08/14 01:59:15;;;;;;;10.40;9.30;;;;;;;;;;108902;1296;22446;-24
2022/08/14 02:01:42;;;;;;;9.00;8.10;;;;;;;;;;108879;1296;23237;-24
2022/08/14 02:04:07;;;;;;;7.80;7.00;;;;;;;;;;108885;1296;23198;-28
2022/08/14 02:06:33;;;;;;;9.70;8.80;;;;;;;;;;108857;1303;22433;-24
2022/08/14 02:09:00;;;;;;;8.30;7.20;;;;;;;;;;108704;1297;23236;-25
2022/08/14 02:11:26;;;;;;;13.20;9.70;;;;;;;;;;108880;1295;23100;-28
2022/08/14 02:13:51;;;;;;;14.70;9.20;;;;;;;;;;108864;1296;22523;-25
2022/08/14 02:16:18;;;;;;;11.50;10.20;;;;;;;;;;108902;1296;22316;-25
2022/08/14 02:18:44;;;;;;;13.90;8.00;;;;;;;;;;108729;1296;22556;-25
2022/08/14 02:21:11;;;;;;;12.50;9.40;;;;;;;;;;108893;1296;22568;-25
2022/08/14 02:23:37;;;;;;;10.50;9.40;;;;;;;;;;108910;1296;22530;-29
2022/08/14 02:26:05;;;;;;;9.80;8.50;;;;;;;;;;108701;1303;22358;-29
2022/08/14 02:28:30;;;;;;;10.10;8.00;;;;;;;;;;108901;1295;23138;-29
2022/08/14 02:30:57;;;;;;;10.60;8.00;;;;;;;;;;108898;1303;22521;-24
2022/08/14 02:33:23;;;;;;;14.70;10.90;;;;;;;;;;108897;1296;22555;-28
2022/08/14 02:35:48;;;;;;;16.30;10.60;;;;;;;;;;108864;1295;22380;-29
2022/08/14 02:38:14;;;;;;;9.80;7.80;;;;;;;;;;108908;1296;23032;-29
2022/08/14 02:40:39;;;;;;;9.80;8.80;;;;;;;;;;108902;1296;23215;-25
2022/08/14 02:43:05;;;;;;;10.10;8.80;;;;;;;;;;108748;1297;22536;-25
2022/08/14 02:45:32;;;;;;;16.60;12.00;;;;;;;;;;108869;1296;23307;-25
2022/08/14 02:47:59;;;;;;;11.90;9.80;;;;;;;;;;108864;1296;23216;-29
2022/08/14 02:50:24;;;;;;;14.90;8.70;;;;;;;;;;108902;1295;22779;-25
2022/08/14 02:52:53;;;;;;;10.10;7.90;;;;;;;;;;108886;1296;23939;-29
2022/08/14 02:55:19;;;;;;;10.70;9.60;;;;;;;;;;108876;1296;22549;-25
2022/08/14 02:57:45;;;;;;;10.50;9.30;;;;;;;;;;108907;1296;23358;-25
2022/08/14 03:00:12;;;;;;;14.80;10.70;;;;;;;;;;108904;1303;22534;-29
2022/08/14 03:02:37;;;;;;;11.00;9.00;;;;;;;;;;108914;1303;22928;-25
2022/08/14 03:05:03;;;;;;;9.60;7.10;;;;;;;;;;108839;1303;22393;-28
2022/08/14 03:07:29;;;;;;;11.40;10.00;;;;;;;;;;108889;1296;22772;-25
2022/08/14 03:09:54;;;;;;;17.20;10.70;;;;;;;;;;108870;1295;22622;-29
2022/08/14 03:12:20;;;;;;;13.20;10.20;;;;;;;;;;108920;1296;22379;-26
2022/08/14 03:14:48;;;;;;;9.90;8.70;;;;;;;;;;108910;1296;22563;-25
2022/08/14 03:17:14;;;;;;;13.30;11.10;;;;;;;;;;108881;1295;23263;-25
2022/08/14 03:19:40;;;;;;;12.00;10.20;;;;;;;;;;108900;1296;22280;-29
2022/08/14 03:22:05;;;;;;;9.90;9.00;;;;;;;;;;108890;1296;23035;-27
2022/08/14 03:24:31;;;;;;;10.20;9.10;;;;;;;;;;108882;1295;23169;-29
2022/08/14 03:26:56;;;;;;;13.60;11.10;;;;;;;;;;108892;1295;22505;-25
2022/08/14 03:29:22;;;;;;;11.50;9.90;;;;;;;;;;108903;1303;22559;-28
2022/08/14 03:31:50;;;;;;;13.10;10.60;;;;;;;;;;108863;1296;22988;-25
2022/08/14 03:34:17;;;;;;;12.60;11.00;;;;;;;;;;108857;1295;22516;-28
2022/08/14 03:36:43;;;;;;;12.40;10.60;;;;;;;;;;108774;1296;22477;-25
2022/08/14 03:39:09;;;;;;;13.80;11.20;;;;;;;;;;108919;1296;22456;-29
2022/08/14 03:41:35;;;;;;;10.50;8.60;;;;;;;;;;108867;1296;22191;-25
2022/08/14 03:44:02;;;;;;;13.30;10.10;;;;;;;;;;108887;1303;23272;-29
2022/08/14 03:46:29;;;;;;;10.50;9.50;;;;;;;;;;108882;1296;22528;-24
2022/08/14 03:48:54;;;;;;;14.30;12.50;;;;;;;;;;108872;1296;22278;-29
2022/08/14 03:51:20;;;;;;;15.80;10.30;;;;;;;;;;108459;1296;22336;-27
2022/08/14 03:53:46;;;;;;;10.80;9.40;;;;;;;;;;108919;1295;22514;-29
2022/08/14 03:56:13;;;;;;;12.60;9.00;;;;;;;;;;108899;1296;22456;-28
2022/08/14 03:58:41;;;;;;;9.80;9.00;;;;;;;;;;108888;1296;23192;-29
2022/08/14 04:01:07;;;;;;;12.20;10.50;;;;;;;;;;108751;1297;23225;-28
2022/08/14 04:03:33;;;;;;;12.10;9.30;;;;;;;;;;108192;1296;23281;-26
2022/08/14 04:05:59;;;;;;;15.50;11.90;;;;;;;;;;108797;1303;22986;-26
2022/08/14 04:08:24;;;;;;;11.60;9.60;;;;;;;;;;108901;1296;23252;-30
2022/08/14 04:10:49;;;;;;;15.40;10.10;;;;;;;;;;108882;1295;22375;-30
2022/08/14 04:13:16;;;;;;;15.60;12.30;;;;;;;;;;108514;1296;23315;-26
2022/08/14 04:15:44;;;;;;;15.70;11.20;;;;;;;;;;108185;1296;1003083;-30
2022/08/14 04:18:09;;;;;;;16.60;11.90;;;;;;;;;;108891;1296;22351;-26
2022/08/14 04:20:35;;;;;;;10.60;9.30;;;;;;;;;;108883;1296;22396;-26
2022/08/14 04:23:00;;;;;;;16.50;13.10;;;;;;;;;;108894;1296;22242;-30
2022/08/14 04:25:26;;;;;;;15.80;11.90;;;;;;;;;;108843;1296;23236;-30
2022/08/14 04:27:53;;;;;;;13.20;11.40;;;;;;;;;;108893;1296;23172;-27
2022/08/14 04:30:19;;;;;;;15.20;10.90;;;;;;;;;;108879;1296;22574;-30
2022/08/14 04:32:44;;;;;;;10.20;8.90;;;;;;;;;;108903;1296;22433;-26
2022/08/14 04:35:10;;;;;;;16.20;11.60;;;;;;;;;;108885;1295;23083;-27
2022/08/14 04:45:02;;;;;;;10.40;9.10;;;;;;;;;;108881;1296;23213;-26
2022/08/14 04:49:57;;;;;;;14.60;10.80;;;;;;;;;;108879;1296;22514;-27
2022/08/14 04:52:22;;;;;;;12.90;9.70;;;;;;;;;;108908;1296;22847;-27
2022/08/14 04:54:48;;;;;;;12.70;10.40;;;;;;;;;;108707;1296;22532;-31
2022/08/14 04:57:13;;;;;;;12.00;10.80;;;;;;;;;;108851;1296;22527;-30
2022/08/14 04:59:40;;;;;;;10.60;9.60;;;;;;;;;;108891;1296;22667;-25
2022/08/14 05:02:06;;;;;;;10.70;9.40;;;;;;;;;;108857;1296;22517;-28
2022/08/14 05:04:32;;;;;;;12.00;10.50;;;;;;;;;;108871;1296;22396;-24
2022/08/14 05:06:58;;;;;;;15.90;13.50;;;;;;;;;;108891;1296;23184;-25
2022/08/14 05:09:24;;;;;;;15.60;11.40;;;;;;;;;;108576;1295;22550;-24
2022/08/14 05:11:49;;;;;;;11.70;9.20;;;;;;;;;;108843;1296;22942;-29
2022/08/14 05:14:17;;;;;;;10.50;9.00;;;;;;;;;;108898;1295;22541;-25
2022/08/14 05:16:43;;;;;;;11.20;9.90;;;;;;;;;;108879;1296;22819;-25
2022/08/14 05:19:09;;;;;;;12.30;8.40;;;;;;;;;;108890;1296;22385;-30
2022/08/14 05:21:34;;;;;;;12.00;9.90;;;;;;;;;;108873;1296;23282;-24
2022/08/14 05:24:01;;;;;;;11.50;9.80;;;;;;;;;;108787;1297;23390;-24
2022/08/14 05:26:26;;;;;;;11.00;9.30;;;;;;;;;;108880;1303;23140;-24
2022/08/14 05:28:51;;;;;;;8.20;7.00;;;;;;;;;;108897;1296;22388;-25
2022/08/14 05:31:17;;;;;;;10.50;8.90;;;;;;;;;;108842;1303;22554;-24
2022/08/14 05:33:43;;;;;;;7.00;6.20;;;;;;;;;;108841;1296;22567;-28
2022/08/14 05:36:09;;;;;;;8.70;6.70;;;;;;;;;;108889;1295;22529;-28
2022/08/14 05:38:37;;;;;;;11.60;7.80;;;;;;;;;;108825;1298;22449;-27
2022/08/14 05:41:03;;;;;;;8.60;7.40;;;;;;;;;;108656;1303;22981;-25
2022/08/14 05:43:29;;;;;;;7.80;6.90;;;;;;;;;;108778;1296;22449;-25
2022/08/14 05:45:56;;;;;;;8.60;7.30;;;;;;;;;;108885;1295;23214;-25
2022/08/14 05:48:22;;;;;;;9.10;6.10;;;;;;;;;;108833;1296;23284;-26
2022/08/14 05:50:48;;;;;;;7.70;7.00;;;;;;;;;;108581;1296;23153;-30
2022/08/14 05:53:14;;;;;;;7.60;7.00;;;;;;;;;;108403;1295;592500;-30
2022/08/14 05:55:39;;;;;;;6.40;5.60;;;;;;;;;;108691;1296;22549;-25
2022/08/14 05:58:05;;;;;;;8.70;7.80;;;;;;;;;;108771;1297;23296;-30
2022/08/14 06:00:33;;;;;;;6.80;5.90;;;;;;;;;;108860;1303;22425;-29
2022/08/14 06:02:58;;;;;;;9.30;6.00;;;;;;;;;;108877;1296;22517;-29
2022/08/14 06:05:24;;;;;;;7.50;6.60;;;;;;;;;;108491;1296;23271;-29
2022/08/14 06:07:49;;;;;;;7.60;6.50;;;;;;;;;;108878;1296;22521;-26
2022/08/14 06:10:15;;;;;;;7.70;7.10;;;;;;;;;;108725;1297;22565;-26
2022/08/14 06:12:41;;;;;;;7.60;6.50;;;;;;;;;;108804;1303;22523;-30
2022/08/14 06:15:07;;;;;;;9.30;8.20;;;;;;;;;;108830;1296;23217;-30
2022/08/14 06:17:41;;;;;;;8.90;8.00;;;;;;;;;;108881;1296;22559;-31
2022/08/14 06:20:07;;;;;;;10.50;8.60;;;;;;;;;;108835;1295;22581;-31
2022/08/14 06:22:33;;;;;;;9.40;8.40;;;;;;;;;;108689;1296;23736;-28
2022/08/14 06:24:58;;;;;;;9.70;7.90;;;;;;;;;;108528;1298;23264;-26
2022/08/14 06:27:24;;;;;;;9.40;8.40;;;;;;;;;;108863;1295;23768;-26
2022/08/14 06:29:49;;;;;;;9.20;7.10;;;;;;;;;;108259;1295;25143;-25
2022/08/14 06:32:15;;;;;;;14.60;10.50;;;;;;;;;;108766;1296;22524;-25
2022/08/14 06:34:40;;;;;;;10.80;9.10;;;;;;;;;;108819;1296;23093;-30
2022/08/14 06:37:06;;;;;;;13.10;10.10;;;;;;;;;;108862;1289;22674;-29
2022/08/14 06:39:32;;;;;;;11.50;9.70;;;;;;;;;;108861;1296;22389;-24
2022/08/14 06:41:58;;;;;;;14.70;8.60;;;;;;;;;;108826;1296;22531;-29
2022/08/14 06:44:24;;;;;;;10.10;8.00;;;;;;;;;;108884;1295;22545;-28
2022/08/14 06:46:49;;;;;;;12.60;10.40;;;;;;;;;;108818;1296;22398;-27
2022/08/14 06:49:15;;;;;;;9.20;8.10;;;;;;;;;;108851;1296;23364;-29
2022/08/14 06:51:45;;;;;;;10.30;9.20;;;;;;;;;;108935;1296;23259;-25
2022/08/14 06:54:11;;;;;;;11.00;9.40;;;;;;;;;;108838;1303;22453;-24
2022/08/14 06:56:37;;;;;;;10.50;9.50;;;;;;;;;;108878;1296;23283;-28
2022/08/14 06:59:02;;;;;;;11.50;10.40;;;;;;;;;;108892;1295;22195;-29
2022/08/14 07:06:25;;;;;;;11.20;9.10;;;;;;;;;;108777;1296;23198;-25
2022/08/14 07:08:51;;;;;;;11.10;9.90;;;;;;;;;;108878;1296;22541;-25
2022/08/14 07:11:17;;;;;;;13.70;10.10;;;;;;;;;;108882;1295;23223;-25
2022/08/14 07:13:42;;;;;;;18.90;12.10;;;;;;;;;;108894;1296;23170;-28
2022/08/14 07:16:11;;;;;;;13.70;10.60;;;;;;;;;;108857;1296;22531;-25
2022/08/14 07:18:37;;;;;;;13.50;11.60;;;;;;;;;;108888;1295;22439;-29
2022/08/14 07:21:03;;;;;;;16.90;11.60;;;;;;;;;;108861;1296;22563;-25
2022/08/14 07:23:29;;;;;;;12.20;10.60;;;;;;;;;;108888;1296;23428;-25
2022/08/14 07:25:55;;;;;;;13.30;11.80;;;;;;;;;;108912;1295;23203;-28
2022/08/14 07:28:22;;;;;;;11.20;10.20;;;;;;;;;;108835;1295;22503;-25
2022/08/14 07:30:48;;;;;;;12.80;11.50;;;;;;;;;;108847;1296;22580;-28
2022/08/14 07:33:14;;;;;;;15.60;11.60;;;;;;;;;;108868;1303;23173;-28
2022/08/14 07:35:39;;;;;;;17.60;12.00;;;;;;;;;;108900;1296;22552;-25
2022/08/14 07:38:05;;;;;;;12.10;10.70;;;;;;;;;;108451;1303;23161;-27
2022/08/14 07:40:31;;;;;;;21.70;11.70;;;;;;;;;;108870;1288;23297;-29
2022/08/14 07:42:56;;;;;;;14.20;8.70;;;;;;;;;;108883;1296;22734;-28
2022/08/14 07:45:22;;;;;;;10.10;9.10;;;;;;;;;;108629;1296;23301;-29
2022/08/14 07:47:47;;;;;;;10.90;9.80;;;;;;;;;;108890;1296;23197;-25
2022/08/14 07:50:14;;;;;;;9.60;8.20;;;;;;;;;;108854;1295;23600;-26
2022/08/14 07:52:40;;;;;;;9.90;8.60;;;;;;;;;;108904;1295;23191;-30
2022/08/14 07:55:06;;;;;;;7.50;6.80;;;;;;;;;;108818;1295;23166;-26
2022/08/14 07:57:32;;;;;;;8.80;8.10;;;;;;;;;;108788;1296;23039;-26
2022/08/14 07:59:57;;;;;;;8.40;7.50;;;;;;;;;;108873;1296;22552;-28
2022/08/14 08:02:25;;;;;;;10.30;9.20;;;;;;;;;;108822;1296;25266;-29
2022/08/14 08:04:52;;;;;;;6.70;6.20;;;;;;;;;;108797;1296;22398;-25
2022/08/14 08:07:18;;;;;;;6.90;6.20;;;;;;;;;;108880;1296;22447;-29
2022/08/14 08:09:47;;;;;;;9.90;6.70;;;;;;;;;;108583;1296;22534;-29
2022/08/14 08:12:14;;;;;;;8.80;7.30;;;;;;;;;;108865;1296;22460;-25
2022/08/14 08:14:42;;;;;;;9.10;8.20;;;;;;;;;;108863;1296;22967;-29
2022/08/14 08:17:07;;;;;;;6.40;5.70;;;;;;;;;;108829;1296;22935;-29
2022/08/14 08:19:33;;;;;;;9.00;6.90;;;;;;;;;;108856;1295;22784;-29
2022/08/14 08:21:58;;;;;;;6.80;6.20;;;;;;;;;;108859;1296;22464;-29
2022/08/14 08:24:24;;;;;;;8.50;5.80;;;;;;;;;;108826;1296;23315;-25
2022/08/14 08:26:49;;;;;;;6.60;5.90;;;;;;;;;;108847;1296;22547;-25
2022/08/14 08:29:18;;;;;;;7.50;6.50;;;;;;;;;;108838;1296;23345;-27
2022/08/14 08:31:49;;;;;;;7.40;6.20;;;;;;;;;;108857;1303;22426;-29
2022/08/14 08:34:15;;;;;;;6.60;5.90;;;;;;;;;;108935;1295;22552;-29
2022/08/14 08:36:41;;;;;;;4.90;4.50;;;;;;;;;;108851;1288;22522;-25
2022/08/14 08:39:07;;;;;;;10.90;5.50;;;;;;;;;;108575;1295;23184;-29
2022/08/14 08:41:36;;;;;;;5.20;4.70;;;;;;;;;;108872;1296;23125;-25
2022/08/14 08:44:02;;;;;;;5.70;5.30;;;;;;;;;;108768;1296;22522;-29
2022/08/14 08:46:28;;;;;;;7.30;6.60;;;;;;;;;;108821;1296;23089;-29
2022/08/14 08:48:55;;;;;;;11.50;6.60;;;;;;;;;;108818;1296;23039;-24
2022/08/14 08:51:26;;;;;;;7.60;6.50;;;;;;;;;;108748;1296;23153;-28
2022/08/14 08:53:55;;;;;;;6.50;6.00;;;;;;;;;;108759;1298;23205;-24
2022/08/14 08:56:20;;;;;;;8.60;6.80;;;;;;;;;;108838;1296;23134;-28
2022/08/14 08:58:46;;;;;;;7.60;6.70;;;;;;;;;;108876;1296;23121;-24
2022/08/14 09:01:11;;;;;;;7.40;6.60;;;;;;;;;;108800;1296;22513;-28
2022/08/14 09:03:37;;;;;;;6.50;5.60;;;;;;;;;;108673;1303;23245;-25
2022/08/14 09:06:04;;;;;;;8.20;7.40;;;;;;;;;;108882;1296;23320;-28
2022/08/14 09:08:30;;;;;;;8.60;7.90;;;;;;;;;;108678;1304;22539;-29
2022/08/14 09:10:56;;;;;;;8.80;8.00;;;;;;;;;;108880;1296;23154;-27
2022/08/14 09:13:25;;;;;;;7.20;6.50;;;;;;;;;;108839;1296;23216;-29
2022/08/14 09:15:51;;;;;;;8.50;7.10;;;;;;;;;;108872;1296;22439;-28
2022/08/14 09:18:18;;;;;;;7.60;6.90;;;;;;;;;;108847;1296;23516;-28
2022/08/14 09:20:46;;;;;;;7.00;6.40;;;;;;;;;;108531;1303;22533;-28
2022/08/14 09:23:12;;;;;;;12.20;7.60;;;;;;;;;;108869;1295;23312;-28
2022/08/14 09:25:40;;;;;;;10.50;6.80;;;;;;;;;;108809;1295;22505;-28
2022/08/14 09:28:05;;;;;;;7.60;7.00;;;;;;;;;;108605;1296;22531;-25
2022/08/14 09:30:33;;;;;;;9.50;6.30;;;;;;;;;;108834;1303;22532;-28
2022/08/14 09:33:02;;;;;;;6.70;6.00;;;;;;;;;;108874;1296;22562;-25
2022/08/14 09:35:32;;;;;;;8.80;5.90;;;;;;;;;;108879;1296;23254;-25
2022/08/14 09:37:57;;;;;;;6.20;5.50;;;;;;;;;;108855;1298;23622;-25
2022/08/14 09:40:26;;;;;;;7.80;7.00;;;;;;;;;;108828;1296;22347;-25
2022/08/14 09:42:55;;;;;;;5.30;4.60;;;;;;;;;;108832;1296;23344;-25
2022/08/14 09:45:24;;;;;;;8.40;5.80;;;;;;;;;;108699;1296;22508;-24
2022/08/14 09:47:50;;;;;;;5.10;4.30;;;;;;;;;;108843;1303;23177;-25
2022/08/14 09:50:17;;;;;;;5.20;4.30;;;;;;;;;;108672;1303;22544;-29
2022/08/14 09:52:46;;;;;;;5.40;4.70;;;;;;;;;;108852;1303;23281;-25
2022/08/14 09:55:17;;;;;;;5.60;5.00;;;;;;;;;;108828;1303;22499;-29
2022/08/14 09:57:43;;;;;;;9.10;3.90;;;;;;;;;;108888;1295;23220;-25
2022/08/14 10:00:13;;;;;;;6.60;5.30;;;;;;;;;;108802;1296;23309;-29
2022/08/14 10:02:38;;;;;;;7.90;7.00;;;;;;;;;;108847;1296;22899;-24
2022/08/14 10:05:05;;;;;;;11.30;8.00;;;;;;;;;;108845;1295;22405;-25
2022/08/14 10:07:32;;;;;;;10.60;9.30;;;;;;;;;;108886;1296;23354;-28
2022/08/14 10:09:59;;;;;;;10.20;9.10;;;;;;;;;;108873;1296;22909;-29
2022/08/14 10:12:29;;;;;;;10.30;7.90;;;;;;;;;;108880;1296;22521;-29
2022/08/14 10:14:55;;;;;;;8.30;6.50;;;;;;;;;;108831;1297;23225;-25
2022/08/14 10:17:25;;;;;;;6.20;4.70;;;;;;;;;;108797;1296;23577;-25
2022/08/14 10:19:51;;;;;;;6.40;4.60;;;;;;;;;;108822;1296;22541;-29
2022/08/14 10:22:27;;;;;;;8.20;5.40;;;;;;;;;;108877;1303;22470;-29
2022/08/14 10:24:52;;;;;;;10.60;8.10;;;;;;;;;;108959;1289;22492;-25
2022/08/14 10:27:19;;;;;;;7.20;6.50;;;;;;;;;;108759;1295;22193;-25
2022/08/14 10:29:47;;;;;;;4.90;4.50;;;;;;;;;;108894;1296;23115;-25
2022/08/14 10:32:13;;;;;;;4.70;4.20;;;;;;;;;;108867;1296;22596;-25
2022/08/14 10:34:39;;;;;;;11.80;5.60;;;;;;;;;;108856;1295;22537;-25
2022/08/14 10:37:06;;;;;;;6.10;5.50;;;;;;;;;;108878;1296;22537;-25
2022/08/14 10:39:32;;;;;;;6.00;5.30;;;;;;;;;;108073;1296;1002892;-25
2022/08/14 10:42:00;;;;;;;6.80;5.70;;;;;;;;;;108847;1296;23148;-25
2022/08/14 10:44:31;;;;;;;6.00;5.40;;;;;;;;;;108726;1297;22538;-28
2022/08/14 10:47:03;;;;;;;8.70;5.70;;;;;;;;;;108913;1296;22537;-25
2022/08/14 10:49:29;;;;;;;6.00;5.10;;;;;;;;;;108874;1288;23194;-29
2022/08/14 10:52:00;;;;;;;7.90;6.40;;;;;;;;;;108876;1303;22526;-29
2022/08/14 10:54:30;;;;;;;8.00;5.90;;;;;;;;;;108880;1296;23293;-29
2022/08/14 10:56:56;;;;;;;9.60;7.20;;;;;;;;;;108889;1295;22449;-29
2022/08/14 10:59:22;;;;;;;13.00;8.30;;;;;;;;;;108706;1296;23344;-28
2022/08/14 11:01:48;;;;;;;6.50;5.90;;;;;;;;;;108844;1296;23356;-24
2022/08/14 11:04:17;;;;;;;8.00;7.00;;;;;;;;;;108752;1289;23425;-25
2022/08/14 11:06:50;;;;;;;11.30;7.40;;;;;;;;;;108754;1296;22520;-29
2022/08/14 11:09:16;;;;;;;7.30;6.00;;;;;;;;;;108814;1296;23180;-24
2022/08/14 11:11:41;;;;;;;6.70;6.00;;;;;;;;;;108883;1296;23183;-28
2022/08/14 11:14:07;;;;;;;7.70;6.00;;;;;;;;;;108886;1295;25362;-24
2022/08/14 11:16:34;;;;;;;8.50;6.00;;;;;;;;;;108818;1296;23469;-28
2022/08/14 11:19:01;;;;;;;6.40;5.70;;;;;;;;;;108704;1297;23350;-28
2022/08/14 11:21:26;;;;;;;8.40;6.50;;;;;;;;;;108832;1295;23834;-29
2022/08/14 11:23:52;;;;;;;7.00;5.30;;;;;;;;;;108701;1303;22354;-24
2022/08/14 11:26:17;;;;;;;7.70;5.10;;;;;;;;;;108511;1296;22533;-28
2022/08/14 11:28:44;;;;;;;6.00;5.10;;;;;;;;;;108898;1296;23297;-28
2022/08/14 11:31:12;;;;;;;4.40;4.00;;;;;;;;;;108866;1295;22524;-29
2022/08/14 11:33:39;;;;;;;4.20;3.90;;;;;;;;;;108842;1303;22208;-28
2022/08/14 11:36:05;;;;;;;3.40;2.80;;;;;;;;;;108841;1296;23011;-28
2022/08/14 11:38:34;;;;;;;5.30;4.40;;;;;;;;;;108299;1296;23526;-25
2022/08/14 11:41:00;;;;;;;4.70;3.70;;;;;;;;;;108863;1296;23317;-24
2022/08/14 11:43:26;;;;;;;4.80;4.30;;;;;;;;;;108816;1296;22507;-24
2022/08/14 11:45:51;;;;;;;3.50;3.20;;;;;;;;;;108834;1296;23357;-24
2022/08/14 11:48:18;;;;;;;5.90;5.30;;;;;;;;;;108938;1303;22549;-28
2022/08/14 11:50:44;;;;;;;5.30;4.20;;;;;;;;;;108802;1303;22655;-24
2022/08/14 11:53:13;;;;;;;5.80;5.20;;;;;;;;;;108840;1296;23194;-28
2022/08/14 11:55:39;;;;;;;6.10;4.50;;;;;;;;;;108791;1296;22616;-24
2022/08/14 11:58:05;;;;;;;5.00;3.60;;;;;;;;;;108844;1296;22407;-24
2022/08/14 12:00:32;;;;;;;7.90;4.30;;;;;;;;;;108785;1296;23228;-28
2022/08/14 12:02:59;;;;;;;6.00;4.80;;;;;;;;;;108764;1296;22799;-24
2022/08/14 12:05:29;;;;;;;7.00;5.70;;;;;;;;;;108665;1296;22857;-28
2022/08/14 12:07:56;;;;;;;5.80;5.30;;;;;;;;;;108774;1303;22541;-24
2022/08/14 12:10:22;;;;;;;6.00;5.40;;;;;;;;;;108867;1295;22551;-24
2022/08/14 12:12:50;;;;;;;5.00;4.40;;;;;;;;;;108890;1296;23258;-28
2022/08/14 12:15:26;;;;;;;6.40;5.80;;;;;;;;;;108864;1295;22987;-28
2022/08/14 12:17:52;;;;;;;5.00;4.50;;;;;;;;;;108732;1297;23095;-28
2022/08/14 12:20:22;;;;;;;4.20;3.70;;;;;;;;;;108878;1295;23318;-28
2022/08/14 12:22:48;;;;;;;4.80;4.30;;;;;;;;;;108831;1289;22672;-28
2022/08/14 12:25:14;;;;;;;4.90;4.40;;;;;;;;;;108707;1296;25232;-24
2022/08/14 12:27:41;;;;;;;4.20;3.50;;;;;;;;;;108902;1296;23225;-28
2022/08/14 12:30:07;;;;;;;4.90;4.30;;;;;;;;;;108956;1295;22564;-28
2022/08/14 12:32:37;;;;;;;7.50;3.90;;;;;;;;;;108404;1298;22549;-28
2022/08/14 12:35:03;;;;;;;5.30;4.50;;;;;;;;;;108267;1299;23058;-24
2022/08/14 12:37:30;;;;;;;4.60;4.10;;;;;;;;;;108858;1296;22520;-24
2022/08/14 12:39:55;;;;;;;6.40;3.90;;;;;;;;;;108002;1296;1002937;-24
2022/08/14 12:42:22;;;;;;;9.40;4.20;;;;;;;;;;108714;1296;22361;-28
2022/08/14 12:44:48;;;;;;;4.90;4.30;;;;;;;;;;108779;1296;22449;-28
2022/08/14 12:47:16;;;;;;;5.70;4.70;;;;;;;;;;108760;1303;22453;-24
2022/08/14 12:49:45;;;;;;;5.30;4.90;;;;;;;;;;108828;1303;22455;-28
2022/08/14 12:52:11;;;;;;;6.80;5.50;;;;;;;;;;108857;1303;22383;-24
2022/08/14 12:54:39;;;;;;;5.10;4.70;;;;;;;;;;108876;1296;22516;-28
2022/08/14 12:57:06;;;;;;;7.10;5.00;;;;;;;;;;108875;1296;23322;-24
2022/08/14 12:59:32;;;;;;;6.90;6.30;;;;;;;;;;108873;1296;23357;-28
2022/08/14 13:01:58;;;;;;;7.00;5.60;;;;;;;;;;108865;1296;23252;-28
2022/08/14 13:04:24;;;;;;;7.90;3.30;;;;;;;;;;108882;1296;23264;-28
2022/08/14 13:06:50;;;;;;;6.30;5.60;;;;;;;;;;108140;1296;1003218;-24
2022/08/14 13:09:15;;;;;;;8.50;5.90;;;;;;;;;;108884;1296;22862;-25
2022/08/14 13:11:43;;;;;;;7.20;6.40;;;;;;;;;;108829;1299;22086;-28
2022/08/14 13:14:10;;;;;;;4.20;3.80;;;;;;;;;;108803;1296;23157;-24
2022/08/14 13:16:35;;;;;;;5.00;4.60;;;;;;;;;;108286;1303;25156;-24
2022/08/14 13:19:01;;;;;;;5.20;4.70;;;;;;;;;;108726;1303;23039;-28
2022/08/14 13:21:27;;;;;;;7.80;6.10;;;;;;;;;;108659;1303;22552;-28
2022/08/14 13:23:53;;;;;;;6.70;5.90;;;;;;;;;;108882;1296;23291;-28
2022/08/14 13:26:19;;;;;;;9.10;6.40;;;;;;;;;;108869;1296;22436;-29
2022/08/14 13:28:44;;;;;;;8.80;7.00;;;;;;;;;;108869;1296;23497;-25
2022/08/14 13:31:10;;;;;;;13.20;9.50;;;;;;;;;;108887;1296;22393;-29
2022/08/14 13:33:36;;;;;;;13.40;9.60;;;;;;;;;;108810;1296;23143;-28
2022/08/14 13:36:01;;;;;;;8.80;8.00;;;;;;;;;;108805;1296;23165;-29
2022/08/14 13:38:28;;;;;;;8.60;7.70;;;;;;;;;;108546;1296;23200;-25
2022/08/14 13:40:54;;;;;;;11.10;6.70;;;;;;;;;;108899;1296;22552;-25
2022/08/14 13:43:21;;;;;;;7.20;6.00;;;;;;;;;;108838;1295;23293;-25
2022/08/14 13:45:46;;;;;;;6.10;4.90;;;;;;;;;;108862;1296;22414;-29
2022/08/14 13:48:14;;;;;;;4.20;3.80;;;;;;;;;;108710;1296;22510;-29
2022/08/14 13:50:39;;;;;;;3.70;2.70;;;;;;;;;;108629;1296;25882;-28
2022/08/14 13:53:05;;;;;;;4.60;3.50;;;;;;;;;;108006;1296;413320;-29
2022/08/14 13:55:31;;;;;;;3.40;3.10;;;;;;;;;;108868;1296;23207;-29
2022/08/14 13:57:57;;;;;;;6.80;5.40;;;;;;;;;;108821;1296;23162;-29
2022/08/14 14:00:22;;;;;;;6.40;5.20;;;;;;;;;;108841;1296;22536;-28
2022/08/14 14:02:47;;;;;;;5.40;4.70;;;;;;;;;;108888;1296;23266;-25
2022/08/14 14:05:13;;;;;;;6.30;5.50;;;;;;;;;;108816;1296;23639;-25
2022/08/14 14:07:40;;;;;;;9.10;5.70;;;;;;;;;;108695;1296;22796;-24
2022/08/14 14:10:08;;;;;;;7.90;5.20;;;;;;;;;;108705;1296;22524;-24
2022/08/14 14:12:36;;;;;;;7.50;6.10;;;;;;;;;;108548;1296;23226;-29
2022/08/14 14:15:04;;;;;;;7.30;6.10;;;;;;;;;;108811;1296;23144;-29
2022/08/14 14:17:30;;;;;;;6.30;5.70;;;;;;;;;;108713;1296;22993;-29
2022/08/14 14:19:56;;;;;;;8.60;6.10;;;;;;;;;;108816;1296;22581;-24
2022/08/14 14:22:22;;;;;;;7.10;5.80;;;;;;;;;;108888;1296;22410;-28
2022/08/14 14:24:47;;;;;;;6.10;5.50;;;;;;;;;;108515;1296;23323;-25
2022/08/14 14:27:13;;;;;;;7.60;6.30;;;;;;;;;;108796;1303;22380;-29
2022/08/14 14:29:39;;;;;;;6.30;5.70;;;;;;;;;;108811;1295;22419;-25
2022/08/14 14:32:05;;;;;;;5.10;4.60;;;;;;;;;;108791;1296;22532;-25
2022/08/14 14:34:32;;;;;;;6.20;5.60;;;;;;;;;;108857;1303;22520;-29
2022/08/14 14:37:03;;;;;;;5.70;5.10;;;;;;;;;;108375;1303;23145;-25